< Typhoon 195613 1956 Season Typhoon 195615 >
Typhoon 195614 (GILDA)
General InformationTrack Information on Google Maps || Disaster Info.ResourceGoogle EarthGE AnimationAtom FeedGeoJSON
Detalied Best Track (Time Zone = UTC)
Year Month Day Hour Lat. Long. Pressure (hPa) Wind (kt) Class Image Chart
1956 9 18 00 12.0 126.6 988 0 9 -- Chart
1956 9 18 06 12.3 125.6 988 0 9 -- Chart
1956 9 18 12 12.4 125.3 990 0 9 -- Chart
1956 9 18 18 12.5 124.7 992 0 9 -- Chart
1956 9 19 00 12.8 124.1 992 0 9 -- Chart
1956 9 19 06 13.6 123.7 988 0 9 -- Chart
1956 9 19 12 14.6 123.8 982 0 9 -- Chart
1956 9 19 18 15.4 123.9 976 0 9 -- Chart
1956 9 20 00 16.5 123.9 972 0 9 -- Chart
1956 9 20 06 17.4 123.6 970 0 9 -- Chart
1956 9 20 12 18.3 123.3 970 0 9 -- Chart
1956 9 20 18 18.9 123.0 960 0 9 -- Chart
1956 9 21 00 19.9 122.5 946 0 9 -- Chart
1956 9 21 06 20.6 121.9 935 0 9 -- Chart
1956 9 21 12 20.5 121.4 935 0 9 -- Chart
1956 9 21 18 21.0 121.2 940 0 9 -- Chart
1956 9 22 00 21.6 121.1 945 0 9 -- Chart
1956 9 22 06 21.8 121.1 945 0 9 -- Chart
1956 9 22 12 22.6 120.6 945 0 9 -- Chart
1956 9 22 18 23.8 119.5 960 0 9 -- Chart
1956 9 23 00 23.7 119.3 970 0 9 -- Chart
1956 9 23 06 24.2 118.8 985 0 9 -- Chart
1956 9 23 12 24.5 118.5 994 0 9 -- Chart
1956 9 23 18 25.1 118.2 996 0 6 -- Chart
Japan Meteorological Agency Best Track Data | Correction Date : 1989-06-01
< Typhoon 195613 1956 Season Typhoon 195615 >

Help